Allison, Iowa
Current Conditions -  °F | °C
As of 1:15 AM on Friday 28 Nov 2014 (Local Time) from KCCY Reporting Station
Overcast Overcast  
Wind Chill: -3°   Ceiling: 6000
Heat Index: 12°   Visibility: 10mi
Dew Point:   Wind: 13mph
Humidity: 67%   Direction: 140°SE
Pressure: 30.22"   Gusts: NA
Location:  42.75°N, 92.8°W
Report Text: KCCY 280715Z AUTO 14011KT 10SM OVC060 M11/M16 A3022 RMK AO2
Loading
Personal Weather Stations






























Interactive Weather Map New forecast layout! Learn more

10-Day Weather Forecast

Advertisements
Track Severe Weather on mobile